Flight Track Log - Related Links

Times and Time Zones

All times are in EDT time to prevent confusion due to time zone crossing. See the MTN8474 flight status page for this flight to view local times or setup timezone preferences in your user account.

Time Position Orientation Groundspeed Altitude Reporting Facility
EDT Latitude Longitude Course Direction KTS MPH feet Rate Location/Type
Fri 07:07:48 AM 39.8178 -82.9269 109° East 85 98 1,000  Level Indianapolis Center
Fri 07:08:55 AM 39.7933 -82.9419 205° Southwest 116 133 1,900 803 Climbing Indianapolis Center
Fri 07:09:55 AM 39.7806 -82.8992 111° Southeast 139 160 2,700 793 Climbing Indianapolis Center
Fri 07:10:56 AM 39.7700 -82.8539 107° East 134 154 3,500 738 Climbing Indianapolis Center
Fri 07:11:57 AM 39.7600 -82.8033 104° East 140 161 4,200 744 Climbing Indianapolis Center
Fri 07:12:57 AM 39.7525 -82.7506 100° East 141 162 5,000 744 Climbing Indianapolis Center
Fri 07:13:00 AM 39.7160 -82.6106 109° East  Level Estimated
Fri 07:13:58 AM 39.7444 -82.7003 102° East 144 166 5,700  Level Indianapolis Center
Fri 07:14:59 AM 39.7303 -82.6517 111° Southeast 144 166 6,400 645 Climbing Indianapolis Center
Fri 07:15:59 AM 39.7158 -82.6033 111° Southeast 144 166 7,000 283 Climbing Indianapolis Center
Fri 07:17:06 AM 39.6922 -82.5397 116° Southeast 177 204 7,000  Level Indianapolis Center
Fri 07:18:00 AM 39.6781 -82.4861 109° East 190 219 7,000  Level Indianapolis Center
Fri 07:19:13 AM 39.6553 -82.4147 112° Southeast 179 206 7,000  Level Indianapolis Center
Fri 07:20:31 AM 39.6306 -82.3339 112° Southeast 179 206 7,000  Level Indianapolis Center
Fri 07:21:32 AM 39.6150 -82.2808 111° Southeast 179 206 7,000  Level Indianapolis Center
Fri 07:22:34 AM 39.5964 -82.2208 112° Southeast 179 206 7,000  Level Indianapolis Center
Fri 07:23:35 AM 39.5769 -82.1631 114° Southeast 176 203 7,000 -49 Level Indianapolis Center
Fri 07:24:36 AM 39.5533 -82.0911 113° Southeast 178 205 6,900 -197 Descending Indianapolis Center
Fri 07:25:37 AM 39.5339 -82.0258 111° Southeast 185 213 6,600 -244 Descending Indianapolis Center
Fri 07:26:39 AM 39.5136 -81.9594 112° Southeast 192 221 6,400 -293 Descending Indianapolis Center
Fri 07:27:40 AM 39.4928 -81.8986 114° Southeast 190 219 6,000 -393 Descending Indianapolis Center
Fri 07:28:41 AM 39.4719 -81.8350 113° Southeast 190 219 5,600 -443 Descending Indianapolis Center
Fri 07:29:42 AM 39.4517 -81.7686 112° Southeast 193 222 5,100 -585 Descending Indianapolis Center
Fri 07:30:44 AM 39.4303 -81.7039 113° Southeast 194 223 4,400 -634 Descending Indianapolis Center
Fri 07:31:45 AM 39.4094 -81.6381 112° Southeast 196 226 3,800 -639 Descending Indianapolis Center
Fri 07:32:46 AM 39.3881 -81.5750 114° Southeast 195 224 3,100 -585 Descending Indianapolis Center
Fri 07:33:48 AM 39.3781 -81.5053 100° East 200 230 2,600 -585 Descending Indianapolis Center
Fri 07:34:49 AM 39.3700 -81.4328 98° East 195 224 1,900 -689 Descending Indianapolis Center

Login

Don't have an account? Register now (free) for customized features, flight alerts, and more!